DLH4BM EDDH-EDDC
Flight info
| Callsign | DLH4BM |
|---|---|
| Flight time | 0h 53m |
| Altitude | 23000 |
| Route | RAMAR6C/05 RAMAR Z998 NUSGU/N0424F270 Z998 OSKAN OSKAN4A |
| Aircraft | A320/M-SDE3FGHIRWY/LB1 |
Departure
| Time | 2026-05-06 14:33 |
|---|---|
| Airport | Hamburg Helmut Schmidt Airport (EDDH) |
Arrival
| Time | 2026-05-06 15:27 |
|---|---|
| Airport | Dresden Airport (EDDC) |
| Time | Latitude | Longitude | Altitude | Speed | Heading |
|---|---|---|---|---|---|
| 2026-05-06 13:33 | 53.63074 | 10.00378 | 49 ft | 0 kts | 94° |
| 2026-05-06 14:09 | 53.63076 | 10.00338 | 48 ft | 4 kts | 95° |
| 2026-05-06 14:09 | 53.63078 | 10.00293 | 48 ft | 4 kts | 97° |
| 2026-05-06 14:10 | 53.63082 | 10.00248 | 46 ft | 4 kts | 103° |
| 2026-05-06 14:10 | 53.63091 | 10.00207 | 46 ft | 4 kts | 132° |
| 2026-05-06 14:10 | 53.63102 | 10.00193 | 42 ft | 0 kts | 176° |
| 2026-05-06 14:15 | 53.63084 | 10.00189 | 47 ft | 6 kts | 191° |
| 2026-05-06 14:15 | 53.63053 | 10.00165 | 48 ft | 4 kts | 211° |
| 2026-05-06 14:15 | 53.63016 | 10.00127 | 48 ft | 7 kts | 212° |
| 2026-05-06 14:15 | 53.62982 | 10.00090 | 45 ft | 5 kts | 212° |
| 2026-05-06 14:16 | 53.62960 | 10.00066 | 48 ft | 3 kts | 212° |
| 2026-05-06 14:16 | 53.62947 | 10.00052 | 46 ft | 1 kts | 214° |
| 2026-05-06 14:16 | 53.62932 | 10.00037 | 48 ft | 7 kts | 202° |
| 2026-05-06 14:16 | 53.62881 | 10.00030 | 48 ft | 7 kts | 194° |
| 2026-05-06 14:17 | 53.62845 | 10.00000 | 46 ft | 5 kts | 210° |
| 2026-05-06 14:17 | 53.62813 | 9.99969 | 47 ft | 6 kts | 209° |
| 2026-05-06 14:17 | 53.62752 | 9.99913 | 46 ft | 13 kts | 209° |
| 2026-05-06 14:17 | 53.62674 | 9.99838 | 44 ft | 12 kts | 214° |
| 2026-05-06 14:18 | 53.62637 | 9.99738 | 47 ft | 9 kts | 254° |
| 2026-05-06 14:18 | 53.62625 | 9.99636 | 47 ft | 9 kts | 259° |
| 2026-05-06 14:18 | 53.62608 | 9.99490 | 47 ft | 17 kts | 259° |
| 2026-05-06 14:18 | 53.62582 | 9.99263 | 47 ft | 20 kts | 259° |
| 2026-05-06 14:19 | 53.62557 | 9.99045 | 47 ft | 18 kts | 259° |
| 2026-05-06 14:19 | 53.62543 | 9.98918 | 47 ft | 0 kts | 259° |
| 2026-05-06 14:19 | 53.62542 | 9.98918 | 47 ft | 1 kts | 259° |
| 2026-05-06 14:19 | 53.62530 | 9.98808 | 47 ft | 19 kts | 259° |
| 2026-05-06 14:20 | 53.62501 | 9.98555 | 47 ft | 21 kts | 259° |
| 2026-05-06 14:20 | 53.62475 | 9.98327 | 45 ft | 14 kts | 259° |
| 2026-05-06 14:20 | 53.62451 | 9.98176 | 47 ft | 12 kts | 249° |
| 2026-05-06 14:20 | 53.62396 | 9.98022 | 47 ft | 17 kts | 231° |
| 2026-05-06 14:21 | 53.62328 | 9.97885 | 47 ft | 14 kts | 230° |
| 2026-05-06 14:21 | 53.62271 | 9.97769 | 47 ft | 12 kts | 230° |
| 2026-05-06 14:21 | 53.62223 | 9.97671 | 47 ft | 10 kts | 230° |
| 2026-05-06 14:21 | 53.62197 | 9.97615 | 47 ft | 0 kts | 237° |
| 2026-05-06 14:22 | 53.62195 | 9.97610 | 47 ft | 0 kts | 236° |
| 2026-05-06 14:26 | 53.62182 | 9.97556 | 46 ft | 6 kts | 255° |
| 2026-05-06 14:26 | 53.62182 | 9.97489 | 47 ft | 6 kts | 279° |
| 2026-05-06 14:26 | 53.62185 | 9.97470 | 46 ft | 0 kts | 286° |
| 2026-05-06 14:28 | 53.62194 | 9.97437 | 44 ft | 9 kts | 301° |
| 2026-05-06 14:28 | 53.62209 | 9.97408 | 44 ft | 0 kts | 316° |
| 2026-05-06 14:29 | 53.62212 | 9.97403 | 43 ft | 4 kts | 316° |
| 2026-05-06 14:30 | 53.62273 | 9.97368 | 38 ft | 13 kts | 359° |
| 2026-05-06 14:30 | 53.62350 | 9.97430 | 40 ft | 4 kts | 51° |
| 2026-05-06 14:30 | 53.62350 | 9.97431 | 40 ft | 0 kts | 51° |
| 2026-05-06 14:32 | 53.62351 | 9.97433 | 40 ft | 4 kts | 51° |
| 2026-05-06 14:33 | 53.62539 | 9.97814 | 41 ft | 79 kts | 50° |
| 2026-05-06 14:33 | 53.63022 | 9.98792 | 46 ft | 135 kts | 51° |
| 2026-05-06 14:33 | 53.63619 | 9.99972 | 368 ft | 151 kts | 49° |
| 2026-05-06 14:33 | 53.64285 | 10.01326 | 1196 ft | 152 kts | 52° |
| 2026-05-06 14:34 | 53.64984 | 10.02813 | 1630 ft | 172 kts | 52° |
| 2026-05-06 14:34 | 53.65775 | 10.04496 | 2015 ft | 192 kts | 52° |
| 2026-05-06 14:34 | 53.66559 | 10.06168 | 2666 ft | 196 kts | 52° |
| 2026-05-06 14:34 | 53.67404 | 10.07965 | 3644 ft | 196 kts | 53° |
| 2026-05-06 14:35 | 53.68268 | 10.09798 | 4476 ft | 203 kts | 53° |
| 2026-05-06 14:35 | 53.69172 | 10.11712 | 4901 ft | 211 kts | 53° |
| 2026-05-06 14:35 | 53.70087 | 10.13647 | 4996 ft | 212 kts | 53° |
| 2026-05-06 14:35 | 53.70973 | 10.15620 | 5002 ft | 210 kts | 60° |
| 2026-05-06 14:36 | 53.71563 | 10.17952 | 5007 ft | 233 kts | 74° |
| 2026-05-06 14:36 | 53.72015 | 10.20696 | 5008 ft | 249 kts | 75° |
| 2026-05-06 14:36 | 53.72483 | 10.23521 | 4996 ft | 251 kts | 74° |
| 2026-05-06 14:36 | 53.72959 | 10.26364 | 4997 ft | 251 kts | 74° |
| 2026-05-06 14:37 | 53.73437 | 10.29218 | 5003 ft | 252 kts | 74° |
| 2026-05-06 14:37 | 53.73912 | 10.32061 | 5001 ft | 253 kts | 74° |
| 2026-05-06 14:37 | 53.74388 | 10.34925 | 5003 ft | 251 kts | 74° |
| 2026-05-06 14:37 | 53.74858 | 10.37764 | 5000 ft | 252 kts | 74° |
| 2026-05-06 14:38 | 53.75328 | 10.40619 | 5005 ft | 252 kts | 74° |
| 2026-05-06 14:38 | 53.75800 | 10.43474 | 5003 ft | 252 kts | 74° |
| 2026-05-06 14:38 | 53.76274 | 10.46329 | 5008 ft | 252 kts | 74° |
| 2026-05-06 14:38 | 53.76746 | 10.49190 | 5004 ft | 254 kts | 75° |
| 2026-05-06 14:39 | 53.77217 | 10.52069 | 5003 ft | 255 kts | 75° |
| 2026-05-06 14:39 | 53.77681 | 10.54906 | 5050 ft | 257 kts | 75° |
| 2026-05-06 14:39 | 53.78165 | 10.57853 | 5911 ft | 259 kts | 74° |
| 2026-05-06 14:39 | 53.78648 | 10.60791 | 6886 ft | 262 kts | 75° |
| 2026-05-06 14:40 | 53.78993 | 10.63800 | 7860 ft | 268 kts | 83° |
| 2026-05-06 14:40 | 53.79068 | 10.66974 | 8798 ft | 275 kts | 91° |
| 2026-05-06 14:40 | 53.78840 | 10.70250 | 9588 ft | 286 kts | 100° |
| 2026-05-06 14:40 | 53.78316 | 10.73517 | 9828 ft | 290 kts | 108° |
| 2026-05-06 14:41 | 53.77460 | 10.76724 | 9888 ft | 316 kts | 118° |
| 2026-05-06 14:41 | 53.76234 | 10.80060 | 9889 ft | 337 kts | 122° |
| 2026-05-06 14:41 | 53.74974 | 10.83416 | 9893 ft | 336 kts | 122° |
| 2026-05-06 14:41 | 53.73738 | 10.86721 | 9886 ft | 331 kts | 121° |
| 2026-05-06 14:42 | 53.72533 | 10.89961 | 9887 ft | 330 kts | 122° |
| 2026-05-06 14:42 | 53.71147 | 10.93036 | 9887 ft | 329 kts | 133° |
| 2026-05-06 14:42 | 53.69375 | 10.95572 | 10213 ft | 339 kts | 145° |
| 2026-05-06 14:42 | 53.67366 | 10.97612 | 11237 ft | 336 kts | 148° |
| 2026-05-06 14:43 | 53.65356 | 10.99660 | 12050 ft | 340 kts | 149° |
| 2026-05-06 14:43 | 53.63329 | 11.01748 | 12875 ft | 343 kts | 149° |
| 2026-05-06 14:43 | 53.61285 | 11.03855 | 13639 ft | 346 kts | 149° |
| 2026-05-06 14:43 | 53.59216 | 11.05982 | 14306 ft | 351 kts | 150° |
| 2026-05-06 14:44 | 53.57115 | 11.08133 | 14982 ft | 355 kts | 150° |
| 2026-05-06 14:44 | 53.54991 | 11.10299 | 15673 ft | 359 kts | 150° |
| 2026-05-06 14:44 | 53.52840 | 11.12483 | 16331 ft | 363 kts | 151° |
| 2026-05-06 14:45 | 53.48471 | 11.16905 | 17636 ft | 371 kts | 152° |
| 2026-05-06 14:45 | 53.46249 | 11.19148 | 18275 ft | 375 kts | 152° |
| 2026-05-06 14:45 | 53.44002 | 11.21418 | 18800 ft | 379 kts | 151° |
| 2026-05-06 14:45 | 53.41785 | 11.23661 | 19308 ft | 382 kts | 151° |
| 2026-05-06 14:46 | 53.39516 | 11.25954 | 19844 ft | 385 kts | 151° |
| 2026-05-06 14:46 | 53.37203 | 11.28286 | 20385 ft | 389 kts | 151° |
| 2026-05-06 14:46 | 53.34874 | 11.30624 | 20934 ft | 393 kts | 151° |
| 2026-05-06 14:46 | 53.32516 | 11.32984 | 21468 ft | 396 kts | 151° |
| 2026-05-06 14:47 | 53.30142 | 11.35359 | 21950 ft | 399 kts | 151° |
| 2026-05-06 14:47 | 53.27753 | 11.37760 | 22479 ft | 402 kts | 149° |
| 2026-05-06 14:47 | 53.25511 | 11.40582 | 22790 ft | 406 kts | 140° |
| 2026-05-06 14:47 | 53.23425 | 11.43804 | 22844 ft | 411 kts | 139° |
| 2026-05-06 14:48 | 53.21318 | 11.47064 | 22837 ft | 412 kts | 139° |
| 2026-05-06 14:48 | 53.19212 | 11.50311 | 22838 ft | 413 kts | 139° |
| 2026-05-06 14:48 | 53.17102 | 11.53544 | 22834 ft | 412 kts | 139° |
| 2026-05-06 14:48 | 53.14995 | 11.56765 | 22829 ft | 411 kts | 139° |
| 2026-05-06 14:49 | 53.12886 | 11.59980 | 22830 ft | 411 kts | 139° |
| 2026-05-06 14:49 | 53.10779 | 11.63191 | 22832 ft | 411 kts | 139° |
| 2026-05-06 14:49 | 53.08672 | 11.66412 | 22834 ft | 411 kts | 139° |
| 2026-05-06 14:49 | 53.06572 | 11.69629 | 22835 ft | 411 kts | 139° |
| 2026-05-06 14:50 | 53.04468 | 11.72843 | 22831 ft | 411 kts | 139° |
| 2026-05-06 14:50 | 53.02360 | 11.76047 | 22818 ft | 411 kts | 140° |
| 2026-05-06 14:50 | 53.00249 | 11.79248 | 22820 ft | 411 kts | 140° |
| 2026-05-06 14:50 | 52.98285 | 11.82711 | 22815 ft | 414 kts | 131° |
| 2026-05-06 14:51 | 52.96540 | 11.86518 | 22810 ft | 415 kts | 130° |
| 2026-05-06 14:51 | 52.94797 | 11.90338 | 22819 ft | 415 kts | 130° |
| 2026-05-06 14:51 | 52.93056 | 11.94149 | 22821 ft | 415 kts | 130° |
| 2026-05-06 14:51 | 52.91307 | 11.97969 | 22816 ft | 416 kts | 130° |
| 2026-05-06 14:52 | 52.89556 | 12.01783 | 22813 ft | 416 kts | 130° |
| 2026-05-06 14:52 | 52.87806 | 12.05590 | 22823 ft | 416 kts | 130° |
| 2026-05-06 14:52 | 52.86053 | 12.09399 | 22814 ft | 416 kts | 130° |
| 2026-05-06 14:52 | 52.84302 | 12.13206 | 22827 ft | 416 kts | 130° |
| 2026-05-06 14:53 | 52.82553 | 12.17011 | 22825 ft | 416 kts | 130° |
| 2026-05-06 14:53 | 52.80801 | 12.20819 | 22809 ft | 416 kts | 131° |
| 2026-05-06 14:53 | 52.79047 | 12.24623 | 22809 ft | 416 kts | 131° |
| 2026-05-06 14:53 | 52.77289 | 12.28425 | 22812 ft | 417 kts | 131° |
| 2026-05-06 14:54 | 52.75526 | 12.32221 | 22811 ft | 417 kts | 131° |
| 2026-05-06 14:54 | 52.73778 | 12.35970 | 22812 ft | 417 kts | 131° |
| 2026-05-06 14:54 | 52.71968 | 12.39795 | 22814 ft | 416 kts | 134° |
| 2026-05-06 14:54 | 52.69936 | 12.43143 | 22818 ft | 411 kts | 144° |
| 2026-05-06 14:55 | 52.67654 | 12.45839 | 22810 ft | 407 kts | 153° |
| 2026-05-06 14:55 | 52.65229 | 12.48230 | 22815 ft | 407 kts | 153° |
| 2026-05-06 14:55 | 52.62799 | 12.50619 | 22813 ft | 407 kts | 153° |
| 2026-05-06 14:55 | 52.60370 | 12.53008 | 22814 ft | 407 kts | 153° |
| 2026-05-06 14:56 | 52.57934 | 12.55404 | 22800 ft | 407 kts | 153° |
| 2026-05-06 14:56 | 52.55477 | 12.57819 | 22784 ft | 407 kts | 153° |
| 2026-05-06 14:56 | 52.53068 | 12.60184 | 22789 ft | 408 kts | 153° |
| 2026-05-06 14:56 | 52.50631 | 12.62576 | 22793 ft | 408 kts | 153° |
| 2026-05-06 14:57 | 52.48192 | 12.64970 | 22797 ft | 409 kts | 153° |
| 2026-05-06 14:57 | 52.45752 | 12.67363 | 22800 ft | 409 kts | 153° |
| 2026-05-06 14:57 | 52.43309 | 12.69755 | 22801 ft | 409 kts | 153° |
| 2026-05-06 14:57 | 52.40868 | 12.72138 | 22805 ft | 409 kts | 153° |
| 2026-05-06 14:58 | 52.38420 | 12.74525 | 22810 ft | 409 kts | 153° |
| 2026-05-06 14:58 | 52.35973 | 12.76911 | 22807 ft | 409 kts | 153° |
| 2026-05-06 14:58 | 52.33530 | 12.79288 | 22792 ft | 409 kts | 153° |
| 2026-05-06 14:58 | 52.31105 | 12.81645 | 22514 ft | 402 kts | 153° |
| 2026-05-06 14:59 | 52.28710 | 12.83968 | 22237 ft | 399 kts | 153° |
| 2026-05-06 14:59 | 52.26332 | 12.86270 | 21968 ft | 397 kts | 153° |
| 2026-05-06 14:59 | 52.23958 | 12.88570 | 21690 ft | 395 kts | 153° |
| 2026-05-06 14:59 | 52.21601 | 12.90858 | 21421 ft | 394 kts | 153° |
| 2026-05-06 15:00 | 52.19254 | 12.93140 | 21162 ft | 392 kts | 154° |
| 2026-05-06 15:00 | 52.16916 | 12.95416 | 20904 ft | 391 kts | 153° |
| 2026-05-06 15:00 | 52.14582 | 12.97685 | 20635 ft | 389 kts | 154° |
| 2026-05-06 15:00 | 52.12257 | 12.99938 | 20387 ft | 388 kts | 154° |
| 2026-05-06 15:01 | 52.09941 | 13.02175 | 20136 ft | 386 kts | 154° |
| 2026-05-06 15:01 | 52.07631 | 13.04399 | 19886 ft | 385 kts | 154° |
| 2026-05-06 15:01 | 52.05336 | 13.06608 | 19637 ft | 384 kts | 154° |
| 2026-05-06 15:01 | 52.03040 | 13.08816 | 19381 ft | 382 kts | 153° |
| 2026-05-06 15:02 | 52.00756 | 13.11014 | 19135 ft | 381 kts | 153° |
| 2026-05-06 15:02 | 51.98491 | 13.13193 | 18894 ft | 379 kts | 153° |
| 2026-05-06 15:02 | 51.96216 | 13.15378 | 18653 ft | 378 kts | 153° |
| 2026-05-06 15:02 | 51.93959 | 13.17542 | 18415 ft | 377 kts | 153° |
| 2026-05-06 15:03 | 51.91707 | 13.19703 | 18172 ft | 375 kts | 153° |
| 2026-05-06 15:03 | 51.89461 | 13.21853 | 17922 ft | 374 kts | 153° |
| 2026-05-06 15:03 | 51.87226 | 13.23989 | 17655 ft | 373 kts | 153° |
| 2026-05-06 15:03 | 51.85001 | 13.26116 | 17370 ft | 371 kts | 153° |
| 2026-05-06 15:04 | 51.82779 | 13.28236 | 17103 ft | 370 kts | 153° |
| 2026-05-06 15:04 | 51.80565 | 13.30342 | 16842 ft | 369 kts | 153° |
| 2026-05-06 15:04 | 51.78351 | 13.32440 | 16579 ft | 368 kts | 153° |
| 2026-05-06 15:04 | 51.76146 | 13.34525 | 16303 ft | 366 kts | 153° |
| 2026-05-06 15:05 | 51.73956 | 13.36597 | 16049 ft | 364 kts | 153° |
| 2026-05-06 15:05 | 51.71774 | 13.38662 | 15803 ft | 362 kts | 153° |
| 2026-05-06 15:05 | 51.70337 | 13.40022 | 15630 ft | 362 kts | 153° |
| 2026-05-06 15:05 | 51.68168 | 13.42071 | 15377 ft | 360 kts | 153° |
| 2026-05-06 15:06 | 51.66009 | 13.44106 | 15127 ft | 359 kts | 153° |
| 2026-05-06 15:06 | 51.63852 | 13.46134 | 14877 ft | 358 kts | 153° |
| 2026-05-06 15:06 | 51.61678 | 13.48172 | 14605 ft | 355 kts | 153° |
| 2026-05-06 15:06 | 51.59575 | 13.50143 | 14143 ft | 352 kts | 153° |
| 2026-05-06 15:07 | 51.57460 | 13.52124 | 13621 ft | 351 kts | 153° |
| 2026-05-06 15:07 | 51.55355 | 13.54095 | 13065 ft | 350 kts | 153° |
| 2026-05-06 15:07 | 51.53261 | 13.56055 | 12544 ft | 346 kts | 153° |
| 2026-05-06 15:07 | 51.51193 | 13.57986 | 12010 ft | 344 kts | 154° |
| 2026-05-06 15:08 | 51.49127 | 13.59916 | 11489 ft | 341 kts | 154° |
| 2026-05-06 15:08 | 51.47016 | 13.61543 | 10964 ft | 334 kts | 164° |
| 2026-05-06 15:08 | 51.44780 | 13.62416 | 10461 ft | 327 kts | 176° |
| 2026-05-06 15:08 | 51.42567 | 13.62520 | 10292 ft | 311 kts | 186° |
| 2026-05-06 15:09 | 51.40467 | 13.62370 | 10170 ft | 298 kts | 185° |
| 2026-05-06 15:09 | 51.38431 | 13.62243 | 10046 ft | 286 kts | 185° |
| 2026-05-06 15:09 | 51.36473 | 13.62127 | 9878 ft | 277 kts | 185° |
| 2026-05-06 15:09 | 51.34571 | 13.62014 | 9749 ft | 272 kts | 185° |
| 2026-05-06 15:10 | 51.32678 | 13.61898 | 9644 ft | 273 kts | 186° |
| 2026-05-06 15:10 | 51.30787 | 13.61776 | 9248 ft | 271 kts | 186° |
| 2026-05-06 15:10 | 51.28908 | 13.61653 | 8869 ft | 270 kts | 185° |
| 2026-05-06 15:10 | 51.27035 | 13.61529 | 8499 ft | 269 kts | 185° |
| 2026-05-06 15:11 | 51.25173 | 13.61406 | 8130 ft | 268 kts | 185° |
| 2026-05-06 15:11 | 51.23387 | 13.61290 | 7772 ft | 257 kts | 185° |
| 2026-05-06 15:11 | 51.21646 | 13.61183 | 7424 ft | 244 kts | 185° |
| 2026-05-06 15:11 | 51.19991 | 13.61085 | 7105 ft | 233 kts | 185° |
| 2026-05-06 15:12 | 51.18402 | 13.60987 | 6819 ft | 222 kts | 185° |
| 2026-05-06 15:12 | 51.16919 | 13.60895 | 6782 ft | 206 kts | 185° |
| 2026-05-06 15:12 | 51.15501 | 13.60803 | 6485 ft | 205 kts | 185° |
| 2026-05-06 15:12 | 51.14079 | 13.60707 | 5998 ft | 201 kts | 185° |
| 2026-05-06 15:13 | 51.12716 | 13.60617 | 5662 ft | 190 kts | 185° |
| 2026-05-06 15:13 | 51.11428 | 13.60534 | 5393 ft | 182 kts | 185° |
| 2026-05-06 15:13 | 51.10171 | 13.60453 | 5137 ft | 179 kts | 185° |
| 2026-05-06 15:13 | 51.08959 | 13.60374 | 5027 ft | 168 kts | 185° |
| 2026-05-06 15:14 | 51.07840 | 13.60305 | 4850 ft | 154 kts | 185° |
| 2026-05-06 15:14 | 51.06802 | 13.60242 | 4661 ft | 146 kts | 185° |
| 2026-05-06 15:14 | 51.05791 | 13.60176 | 4476 ft | 144 kts | 186° |
| 2026-05-06 15:14 | 51.04800 | 13.60110 | 4278 ft | 142 kts | 188° |
| 2026-05-06 15:15 | 51.03811 | 13.60044 | 4091 ft | 142 kts | 186° |
| 2026-05-06 15:15 | 51.02816 | 13.60045 | 4013 ft | 146 kts | 173° |
| 2026-05-06 15:15 | 51.01946 | 13.60883 | 4000 ft | 156 kts | 121° |
| 2026-05-06 15:15 | 51.01882 | 13.62581 | 4003 ft | 164 kts | 62° |
| 2026-05-06 15:16 | 51.02740 | 13.63600 | 4030 ft | 154 kts | 6° |
| 2026-05-06 15:16 | 51.03803 | 13.63771 | 3990 ft | 155 kts | 15° |
| 2026-05-06 15:16 | 51.04733 | 13.64622 | 4021 ft | 156 kts | 27° |
| 2026-05-06 15:16 | 51.05747 | 13.64797 | 4010 ft | 146 kts | 337° |
| 2026-05-06 15:17 | 51.06611 | 13.63992 | 4010 ft | 143 kts | 317° |
| 2026-05-06 15:17 | 51.07395 | 13.63021 | 4005 ft | 143 kts | 315° |
| 2026-05-06 15:17 | 51.08171 | 13.62042 | 4004 ft | 143 kts | 315° |
| 2026-05-06 15:17 | 51.08950 | 13.61057 | 4005 ft | 143 kts | 316° |
| 2026-05-06 15:18 | 51.09706 | 13.60064 | 4004 ft | 143 kts | 316° |
| 2026-05-06 15:18 | 51.10465 | 13.59044 | 4005 ft | 143 kts | 313° |
| 2026-05-06 15:18 | 51.11230 | 13.58043 | 4006 ft | 142 kts | 315° |
| 2026-05-06 15:18 | 51.11973 | 13.57005 | 3999 ft | 141 kts | 306° |
| 2026-05-06 15:19 | 51.12186 | 13.55575 | 4001 ft | 135 kts | 251° |
| 2026-05-06 15:19 | 51.11694 | 13.54296 | 4000 ft | 135 kts | 229° |
| 2026-05-06 15:19 | 51.11050 | 13.53195 | 4006 ft | 136 kts | 226° |
| 2026-05-06 15:19 | 51.10387 | 13.52143 | 4005 ft | 135 kts | 225° |
| 2026-05-06 15:20 | 51.09713 | 13.51084 | 4008 ft | 136 kts | 226° |
| 2026-05-06 15:20 | 51.09035 | 13.50038 | 4006 ft | 136 kts | 225° |
| 2026-05-06 15:20 | 51.08350 | 13.48978 | 4006 ft | 136 kts | 225° |
| 2026-05-06 15:20 | 51.07660 | 13.47905 | 3996 ft | 139 kts | 225° |
| 2026-05-06 15:21 | 51.06975 | 13.46832 | 3997 ft | 138 kts | 225° |
| 2026-05-06 15:21 | 51.06203 | 13.45989 | 4006 ft | 139 kts | 194° |
| 2026-05-06 15:21 | 51.05270 | 13.46382 | 4001 ft | 145 kts | 142° |
| 2026-05-06 15:21 | 51.04612 | 13.47622 | 3998 ft | 147 kts | 129° |
| 2026-05-06 15:22 | 51.04053 | 13.48989 | 3997 ft | 150 kts | 126° |
| 2026-05-06 15:22 | 51.03504 | 13.50393 | 3998 ft | 149 kts | 122° |
| 2026-05-06 15:22 | 51.03208 | 13.51981 | 4000 ft | 152 kts | 99° |
| 2026-05-06 15:22 | 51.03123 | 13.53645 | 4012 ft | 153 kts | 96° |
| 2026-05-06 15:23 | 51.03030 | 13.55339 | 4008 ft | 154 kts | 97° |
| 2026-05-06 15:23 | 51.02956 | 13.57043 | 4006 ft | 154 kts | 96° |
| 2026-05-06 15:23 | 51.02914 | 13.58749 | 4009 ft | 155 kts | 89° |
| 2026-05-06 15:23 | 51.03303 | 13.60313 | 4004 ft | 154 kts | 52° |
| 2026-05-06 15:24 | 51.04011 | 13.61621 | 3999 ft | 156 kts | 48° |
| 2026-05-06 15:24 | 51.04724 | 13.62984 | 3984 ft | 160 kts | 50° |
| 2026-05-06 15:24 | 51.05393 | 13.64371 | 3702 ft | 161 kts | 54° |
| 2026-05-06 15:24 | 51.06054 | 13.65889 | 3075 ft | 173 kts | 53° |
| 2026-05-06 15:25 | 51.06838 | 13.67304 | 2605 ft | 169 kts | 45° |
| 2026-05-06 15:25 | 51.07597 | 13.68677 | 2318 ft | 159 kts | 47° |
| 2026-05-06 15:25 | 51.08352 | 13.69867 | 2009 ft | 151 kts | 39° |
| 2026-05-06 15:25 | 51.09144 | 13.70892 | 1731 ft | 144 kts | 40° |
| 2026-05-06 15:26 | 51.09885 | 13.71938 | 1475 ft | 139 kts | 41° |
| 2026-05-06 15:26 | 51.10609 | 13.72951 | 1235 ft | 137 kts | 38° |
| 2026-05-06 15:26 | 51.11334 | 13.73927 | 1058 ft | 137 kts | 41° |
| 2026-05-06 15:26 | 51.12046 | 13.74922 | 896 ft | 138 kts | 34° |
| 2026-05-06 15:27 | 51.12776 | 13.75898 | 717 ft | 131 kts | 38° |
| 2026-05-06 15:27 | 51.13364 | 13.76702 | 712 ft | 88 kts | 41° |
| 2026-05-06 15:27 | 51.13672 | 13.77125 | 717 ft | 43 kts | 40° |
| 2026-05-06 15:27 | 51.13746 | 13.77226 | 717 ft | 3 kts | 40° |
| 2026-05-06 15:28 | 51.13759 | 13.77243 | 714 ft | 2 kts | 40° |
| 2026-05-06 15:28 | 51.13767 | 13.77254 | 714 ft | 5 kts | 40° |
| 2026-05-06 15:28 | 51.13780 | 13.77275 | 719 ft | 9 kts | 43° |